sensor_id;sensor_type;location;lat;lon;timestamp;P1;durP1;ratioP1;P2;durP2;ratioP2
33987;SDS011;37428;53.580;-1.666;2023-04-01T00:00:20;5.43;;;3.70;;
33987;SDS011;37428;53.580;-1.666;2023-04-01T00:03:22;6.03;;;4.95;;
33987;SDS011;37428;53.580;-1.666;2023-04-01T00:06:25;7.20;;;4.50;;
33987;SDS011;37428;53.580;-1.666;2023-04-01T00:09:29;5.53;;;4.13;;
33987;SDS011;37428;53.580;-1.666;2023-04-01T00:12:31;6.07;;;3.88;;
33987;SDS011;37428;53.580;-1.666;2023-04-01T00:15:33;6.35;;;3.75;;
33987;SDS011;37428;53.580;-1.666;2023-04-01T00:18:35;6.65;;;3.83;;
33987;SDS011;37428;53.580;-1.666;2023-04-01T00:21:38;4.07;;;3.38;;
33987;SDS011;37428;53.580;-1.666;2023-04-01T00:24:41;7.88;;;3.60;;
33987;SDS011;37428;53.580;-1.666;2023-04-01T00:27:44;6.57;;;3.05;;
33987;SDS011;37428;53.580;-1.666;2023-04-01T00:33:49;3.00;;;2.78;;
33987;SDS011;37428;53.580;-1.666;2023-04-01T00:36:52;4.18;;;3.55;;
33987;SDS011;37428;53.580;-1.666;2023-04-01T00:39:56;3.50;;;2.40;;
33987;SDS011;37428;53.580;-1.666;2023-04-01T00:42:58;5.68;;;2.83;;
33987;SDS011;37428;53.580;-1.666;2023-04-01T00:46:02;6.07;;;2.90;;
33987;SDS011;37428;53.580;-1.666;2023-04-01T00:49:04;3.85;;;2.78;;
33987;SDS011;37428;53.580;-1.666;2023-04-01T00:52:07;3.60;;;2.60;;
33987;SDS011;37428;53.580;-1.666;2023-04-01T00:55:13;5.63;;;2.55;;
33987;SDS011;37428;53.580;-1.666;2023-04-01T00:58:18;4.63;;;2.67;;
33987;SDS011;37428;53.580;-1.666;2023-04-01T01:01:23;3.85;;;2.55;;
33987;SDS011;37428;53.580;-1.666;2023-04-01T01:04:26;4.90;;;3.20;;
33987;SDS011;37428;53.580;-1.666;2023-04-01T01:07:31;5.30;;;2.53;;
33987;SDS011;37428;53.580;-1.666;2023-04-01T01:10:45;7.18;;;3.03;;
33987;SDS011;37428;53.580;-1.666;2023-04-01T01:13:52;4.00;;;3.08;;
33987;SDS011;37428;53.580;-1.666;2023-04-01T01:17:02;5.22;;;3.55;;
33987;SDS011;37428;53.580;-1.666;2023-04-01T01:23:54;6.70;;;3.40;;
33987;SDS011;37428;53.580;-1.666;2023-04-01T01:27:10;7.07;;;4.20;;
33987;SDS011;37428;53.580;-1.666;2023-04-01T01:30:21;6.32;;;4.68;;
33987;SDS011;37428;53.580;-1.666;2023-04-01T01:33:40;8.13;;;4.55;;
33987;SDS011;37428;53.580;-1.666;2023-04-01T01:36:52;8.57;;;3.78;;
33987;SDS011;37428;53.580;-1.666;2023-04-01T01:39:59;5.50;;;2.78;;
33987;SDS011;37428;53.580;-1.666;2023-04-01T01:43:06;5.45;;;2.60;;
33987;SDS011;37428;53.580;-1.666;2023-04-01T01:46:13;7.28;;;2.88;;
33987;SDS011;37428;53.580;-1.666;2023-04-01T01:49:18;6.32;;;2.92;;
33987;SDS011;37428;53.580;-1.666;2023-04-01T01:52:22;4.90;;;2.50;;
33987;SDS011;37428;53.580;-1.666;2023-04-01T01:55:26;8.88;;;3.35;;
33987;SDS011;37428;53.580;-1.666;2023-04-01T01:58:31;5.18;;;3.50;;
33987;SDS011;37428;53.580;-1.666;2023-04-01T02:01:41;7.57;;;4.15;;
33987;SDS011;37428;53.580;-1.666;2023-04-01T02:04:46;5.70;;;3.38;;
33987;SDS011;37428;53.580;-1.666;2023-04-01T02:10:58;3.30;;;3.00;;
33987;SDS011;37428;53.580;-1.666;2023-04-01T02:14:04;8.85;;;2.72;;
33987;SDS011;37428;53.580;-1.666;2023-04-01T02:17:09;5.57;;;2.90;;
33987;SDS011;37428;53.580;-1.666;2023-04-01T02:20:16;4.05;;;2.40;;
33987;SDS011;37428;53.580;-1.666;2023-04-01T02:23:22;5.90;;;3.17;;
33987;SDS011;37428;53.580;-1.666;2023-04-01T02:26:24;4.95;;;2.10;;
33987;SDS011;37428;53.580;-1.666;2023-04-01T02:29:27;4.13;;;2.22;;
33987;SDS011;37428;53.580;-1.666;2023-04-01T02:32:29;4.88;;;3.60;;
33987;SDS011;37428;53.580;-1.666;2023-04-01T02:35:35;11.52;;;3.72;;
33987;SDS011;37428;53.580;-1.666;2023-04-01T02:38:39;5.30;;;3.30;;
33987;SDS011;37428;53.580;-1.666;2023-04-01T02:41:43;11.05;;;4.47;;
33987;SDS011;37428;53.580;-1.666;2023-04-01T02:44:47;4.93;;;3.08;;
33987;SDS011;37428;53.580;-1.666;2023-04-01T02:47:49;8.35;;;3.00;;
33987;SDS011;37428;53.580;-1.666;2023-04-01T02:50:51;7.35;;;3.10;;
33987;SDS011;37428;53.580;-1.666;2023-04-01T02:53:55;5.60;;;3.45;;
33987;SDS011;37428;53.580;-1.666;2023-04-01T02:56:57;8.30;;;3.53;;
33987;SDS011;37428;53.580;-1.666;2023-04-01T03:00:00;8.68;;;4.38;;
33987;SDS011;37428;53.580;-1.666;2023-04-01T03:03:03;6.97;;;4.05;;
33987;SDS011;37428;53.580;-1.666;2023-04-01T03:06:06;14.38;;;4.13;;
33987;SDS011;37428;53.580;-1.666;2023-04-01T03:09:10;8.50;;;4.18;;
33987;SDS011;37428;53.580;-1.666;2023-04-01T03:12:12;16.35;;;4.82;;
33987;SDS011;37428;53.580;-1.666;2023-04-01T03:15:15;8.57;;;4.15;;
33987;SDS011;37428;53.580;-1.666;2023-04-01T03:18:17;5.13;;;3.63;;
33987;SDS011;37428;53.580;-1.666;2023-04-01T03:21:20;7.32;;;3.63;;
33987;SDS011;37428;53.580;-1.666;2023-04-01T03:24:24;7.70;;;3.50;;
33987;SDS011;37428;53.580;-1.666;2023-04-01T03:27:26;6.80;;;3.10;;
33987;SDS011;37428;53.580;-1.666;2023-04-01T03:30:29;3.30;;;2.05;;
33987;SDS011;37428;53.580;-1.666;2023-04-01T03:33:31;9.13;;;3.53;;
33987;SDS011;37428;53.580;-1.666;2023-04-01T03:36:33;10.00;;;3.20;;
33987;SDS011;37428;53.580;-1.666;2023-04-01T03:39:37;6.93;;;3.50;;
33987;SDS011;37428;53.580;-1.666;2023-04-01T03:42:39;4.35;;;3.47;;
33987;SDS011;37428;53.580;-1.666;2023-04-01T03:45:43;7.22;;;2.65;;
33987;SDS011;37428;53.580;-1.666;2023-04-01T03:48:45;9.98;;;3.20;;
33987;SDS011;37428;53.580;-1.666;2023-04-01T03:51:47;12.27;;;3.42;;
33987;SDS011;37428;53.580;-1.666;2023-04-01T03:57:53;4.80;;;2.67;;
33987;SDS011;37428;53.580;-1.666;2023-04-01T04:00:55;8.93;;;3.45;;
33987;SDS011;37428;53.580;-1.666;2023-04-01T04:03:58;8.80;;;3.13;;
33987;SDS011;37428;53.580;-1.666;2023-04-01T04:10:04;7.20;;;2.67;;
33987;SDS011;37428;53.580;-1.666;2023-04-01T04:13:07;8.23;;;3.30;;
33987;SDS011;37428;53.580;-1.666;2023-04-01T04:16:09;4.35;;;2.63;;
33987;SDS011;37428;53.580;-1.666;2023-04-01T04:19:11;6.97;;;2.70;;
33987;SDS011;37428;53.580;-1.666;2023-04-01T04:22:14;9.73;;;2.85;;
33987;SDS011;37428;53.580;-1.666;2023-04-01T04:25:17;8.20;;;2.00;;
33987;SDS011;37428;53.580;-1.666;2023-04-01T04:28:19;4.13;;;1.55;;
33987;SDS011;37428;53.580;-1.666;2023-04-01T04:31:22;5.47;;;1.92;;
33987;SDS011;37428;53.580;-1.666;2023-04-01T04:34:25;4.32;;;1.90;;
33987;SDS011;37428;53.580;-1.666;2023-04-01T04:37:27;5.70;;;1.92;;
33987;SDS011;37428;53.580;-1.666;2023-04-01T04:40:31;4.82;;;1.60;;
33987;SDS011;37428;53.580;-1.666;2023-04-01T04:43:33;4.75;;;1.83;;
33987;SDS011;37428;53.580;-1.666;2023-04-01T04:46:35;4.45;;;1.88;;
33987;SDS011;37428;53.580;-1.666;2023-04-01T04:49:39;3.65;;;1.83;;
33987;SDS011;37428;53.580;-1.666;2023-04-01T04:52:41;4.00;;;1.52;;
33987;SDS011;37428;53.580;-1.666;2023-04-01T04:55:45;3.40;;;1.60;;
33987;SDS011;37428;53.580;-1.666;2023-04-01T04:58:48;4.45;;;1.95;;
33987;SDS011;37428;53.580;-1.666;2023-04-01T05:04:52;3.13;;;1.35;;
33987;SDS011;37428;53.580;-1.666;2023-04-01T05:07:54;3.40;;;1.98;;
33987;SDS011;37428;53.580;-1.666;2023-04-01T05:10:58;5.00;;;1.88;;
33987;SDS011;37428;53.580;-1.666;2023-04-01T05:14:00;7.90;;;1.50;;
33987;SDS011;37428;53.580;-1.666;2023-04-01T05:17:02;6.82;;;1.08;;
33987;SDS011;37428;53.580;-1.666;2023-04-01T05:20:05;4.03;;;1.70;;
33987;SDS011;37428;53.580;-1.666;2023-04-01T05:23:08;4.78;;;1.05;;
33987;SDS011;37428;53.580;-1.666;2023-04-01T05:26:12;6.68;;;0.85;;
33987;SDS011;37428;53.580;-1.666;2023-04-01T05:29:15;5.38;;;1.10;;
33987;SDS011;37428;53.580;-1.666;2023-04-01T05:32:17;3.70;;;1.02;;
33987;SDS011;37428;53.580;-1.666;2023-04-01T05:35:19;2.70;;;0.93;;
33987;SDS011;37428;53.580;-1.666;2023-04-01T05:38:22;4.13;;;1.08;;
33987;SDS011;37428;53.580;-1.666;2023-04-01T05:41:25;4.85;;;1.10;;
33987;SDS011;37428;53.580;-1.666;2023-04-01T05:44:27;3.75;;;1.10;;
33987;SDS011;37428;53.580;-1.666;2023-04-01T05:47:29;3.75;;;1.17;;
33987;SDS011;37428;53.580;-1.666;2023-04-01T05:50:31;1.98;;;1.20;;
33987;SDS011;37428;53.580;-1.666;2023-04-01T05:53:34;2.72;;;1.10;;
33987;SDS011;37428;53.580;-1.666;2023-04-01T05:56:37;3.08;;;0.93;;
33987;SDS011;37428;53.580;-1.666;2023-04-01T05:59:39;5.47;;;1.08;;
33987;SDS011;37428;53.580;-1.666;2023-04-01T06:02:41;3.58;;;1.20;;
33987;SDS011;37428;53.580;-1.666;2023-04-01T06:05:44;4.50;;;1.05;;
33987;SDS011;37428;53.580;-1.666;2023-04-01T06:08:46;4.60;;;1.13;;
33987;SDS011;37428;53.580;-1.666;2023-04-01T06:12:00;4.75;;;1.70;;
33987;SDS011;37428;53.580;-1.666;2023-04-01T06:15:27;5.85;;;1.10;;
33987;SDS011;37428;53.580;-1.666;2023-04-01T06:18:45;2.58;;;1.30;;
33987;SDS011;37428;53.580;-1.666;2023-04-01T06:22:22;6.25;;;2.20;;
33987;SDS011;37428;53.580;-1.666;2023-04-01T06:25:48;5.03;;;1.80;;
33987;SDS011;37428;53.580;-1.666;2023-04-01T06:29:05;10.13;;;2.08;;
33987;SDS011;37428;53.580;-1.666;2023-04-01T06:36:15;6.25;;;1.50;;
33987;SDS011;37428;53.580;-1.666;2023-04-01T06:39:36;5.95;;;2.10;;
33987;SDS011;37428;53.580;-1.666;2023-04-01T06:42:50;2.92;;;1.77;;
33987;SDS011;37428;53.580;-1.666;2023-04-01T06:46:04;2.58;;;1.05;;
33987;SDS011;37428;53.580;-1.666;2023-04-01T06:52:37;2.15;;;1.02;;
33987;SDS011;37428;53.580;-1.666;2023-04-01T06:55:47;4.80;;;1.57;;
33987;SDS011;37428;53.580;-1.666;2023-04-01T06:58:51;5.78;;;1.85;;
33987;SDS011;37428;53.580;-1.666;2023-04-01T07:02:00;3.97;;;1.35;;
33987;SDS011;37428;53.580;-1.666;2023-04-01T07:05:06;6.70;;;1.65;;
33987;SDS011;37428;53.580;-1.666;2023-04-01T07:08:11;5.07;;;1.30;;
33987;SDS011;37428;53.580;-1.666;2023-04-01T07:11:22;5.20;;;1.45;;
33987;SDS011;37428;53.580;-1.666;2023-04-01T07:14:28;3.92;;;1.30;;
33987;SDS011;37428;53.580;-1.666;2023-04-01T07:17:35;4.63;;;1.42;;
33987;SDS011;37428;53.580;-1.666;2023-04-01T07:20:40;5.65;;;1.60;;
33987;SDS011;37428;53.580;-1.666;2023-04-01T07:23:42;3.25;;;1.60;;
33987;SDS011;37428;53.580;-1.666;2023-04-01T07:26:47;3.22;;;1.70;;
33987;SDS011;37428;53.580;-1.666;2023-04-01T07:29:55;2.85;;;1.30;;
33987;SDS011;37428;53.580;-1.666;2023-04-01T07:33:02;4.53;;;1.70;;
33987;SDS011;37428;53.580;-1.666;2023-04-01T07:36:10;5.90;;;1.73;;
33987;SDS011;37428;53.580;-1.666;2023-04-01T07:39:23;6.40;;;1.67;;
33987;SDS011;37428;53.580;-1.666;2023-04-01T07:42:35;2.88;;;1.70;;
33987;SDS011;37428;53.580;-1.666;2023-04-01T07:45:47;3.25;;;1.75;;
33987;SDS011;37428;53.580;-1.666;2023-04-01T07:48:58;2.60;;;1.80;;
33987;SDS011;37428;53.580;-1.666;2023-04-01T07:52:06;3.90;;;1.88;;
33987;SDS011;37428;53.580;-1.666;2023-04-01T07:55:14;3.80;;;1.73;;
33987;SDS011;37428;53.580;-1.666;2023-04-01T07:58:20;4.15;;;1.70;;
33987;SDS011;37428;53.580;-1.666;2023-04-01T08:01:33;4.70;;;1.70;;
33987;SDS011;37428;53.580;-1.666;2023-04-01T08:04:53;7.70;;;3.38;;
33987;SDS011;37428;53.580;-1.666;2023-04-01T08:08:05;3.70;;;1.70;;
33987;SDS011;37428;53.580;-1.666;2023-04-01T08:11:19;4.82;;;2.42;;
33987;SDS011;37428;53.580;-1.666;2023-04-01T08:14:31;5.40;;;2.35;;
33987;SDS011;37428;53.580;-1.666;2023-04-01T08:17:39;2.20;;;1.55;;
33987;SDS011;37428;53.580;-1.666;2023-04-01T08:20:50;4.55;;;1.10;;
33987;SDS011;37428;53.580;-1.666;2023-04-01T08:23:56;4.22;;;1.48;;
33987;SDS011;37428;53.580;-1.666;2023-04-01T08:27:01;3.03;;;2.15;;
33987;SDS011;37428;53.580;-1.666;2023-04-01T08:30:15;3.42;;;1.50;;
33987;SDS011;37428;53.580;-1.666;2023-04-01T08:33:21;2.90;;;1.50;;
33987;SDS011;37428;53.580;-1.666;2023-04-01T08:36:28;1.98;;;1.00;;
33987;SDS011;37428;53.580;-1.666;2023-04-01T08:39:34;1.63;;;1.35;;
33987;SDS011;37428;53.580;-1.666;2023-04-01T08:42:49;2.85;;;1.58;;
33987;SDS011;37428;53.580;-1.666;2023-04-01T08:46:11;1.70;;;1.25;;
33987;SDS011;37428;53.580;-1.666;2023-04-01T08:49:41;2.03;;;0.85;;
33987;SDS011;37428;53.580;-1.666;2023-04-01T08:53:06;3.70;;;1.42;;
33987;SDS011;37428;53.580;-1.666;2023-04-01T08:56:17;1.90;;;1.35;;
33987;SDS011;37428;53.580;-1.666;2023-04-01T08:59:26;2.95;;;1.30;;
33987;SDS011;37428;53.580;-1.666;2023-04-01T09:02:50;3.58;;;1.02;;
33987;SDS011;37428;53.580;-1.666;2023-04-01T09:06:24;3.40;;;1.17;;
33987;SDS011;37428;53.580;-1.666;2023-04-01T09:09:49;1.67;;;1.20;;
33987;SDS011;37428;53.580;-1.666;2023-04-01T09:13:15;2.55;;;1.50;;
33987;SDS011;37428;53.580;-1.666;2023-04-01T09:16:36;2.60;;;1.55;;
33987;SDS011;37428;53.580;-1.666;2023-04-01T09:19:58;2.83;;;1.40;;
33987;SDS011;37428;53.580;-1.666;2023-04-01T09:23:17;5.80;;;1.00;;
33987;SDS011;37428;53.580;-1.666;2023-04-01T09:30:17;2.85;;;1.35;;
33987;SDS011;37428;53.580;-1.666;2023-04-01T09:37:16;3.08;;;1.00;;
33987;SDS011;37428;53.580;-1.666;2023-04-01T09:40:23;2.83;;;1.20;;
33987;SDS011;37428;53.580;-1.666;2023-04-01T09:43:42;1.90;;;1.20;;
33987;SDS011;37428;53.580;-1.666;2023-04-01T09:46:59;2.95;;;1.35;;
33987;SDS011;37428;53.580;-1.666;2023-04-01T09:50:17;4.63;;;1.25;;
33987;SDS011;37428;53.580;-1.666;2023-04-01T10:11:32;2.22;;;1.02;;
33987;SDS011;37428;53.580;-1.666;2023-04-01T10:15:00;1.25;;;0.95;;
33987;SDS011;37428;53.580;-1.666;2023-04-01T10:18:37;2.63;;;1.40;;
33987;SDS011;37428;53.580;-1.666;2023-04-01T10:25:50;2.88;;;1.13;;
33987;SDS011;37428;53.580;-1.666;2023-04-01T10:33:12;3.28;;;1.77;;
33987;SDS011;37428;53.580;-1.666;2023-04-01T10:36:48;2.88;;;1.52;;
33987;SDS011;37428;53.580;-1.666;2023-04-01T10:43:54;2.38;;;1.00;;
33987;SDS011;37428;53.580;-1.666;2023-04-01T10:51:12;3.60;;;1.40;;
33987;SDS011;37428;53.580;-1.666;2023-04-01T10:54:32;3.28;;;1.48;;
33987;SDS011;37428;53.580;-1.666;2023-04-01T10:57:53;3.17;;;1.70;;
33987;SDS011;37428;53.580;-1.666;2023-04-01T11:01:33;5.72;;;1.58;;
33987;SDS011;37428;53.580;-1.666;2023-04-01T11:16:33;0.77;;;0.60;;
33987;SDS011;37428;53.580;-1.666;2023-04-01T11:20:06;0.82;;;0.82;;
33987;SDS011;37428;53.580;-1.666;2023-04-01T11:23:31;2.28;;;0.65;;
33987;SDS011;37428;53.580;-1.666;2023-04-01T11:27:04;1.25;;;0.73;;
33987;SDS011;37428;53.580;-1.666;2023-04-01T11:30:24;1.90;;;0.68;;
33987;SDS011;37428;53.580;-1.666;2023-04-01T11:33:36;3.13;;;0.40;;
33987;SDS011;37428;53.580;-1.666;2023-04-01T11:36:47;1.08;;;0.50;;
33987;SDS011;37428;53.580;-1.666;2023-04-01T11:40:02;0.65;;;0.43;;
33987;SDS011;37428;53.580;-1.666;2023-04-01T11:43:16;2.15;;;1.02;;
33987;SDS011;37428;53.580;-1.666;2023-04-01T11:46:27;4.38;;;1.20;;
33987;SDS011;37428;53.580;-1.666;2023-04-01T11:49:44;3.65;;;2.05;;
33987;SDS011;37428;53.580;-1.666;2023-04-01T11:53:00;2.17;;;1.00;;
33987;SDS011;37428;53.580;-1.666;2023-04-01T11:56:14;1.77;;;1.00;;
33987;SDS011;37428;53.580;-1.666;2023-04-01T11:59:29;0.80;;;0.80;;
33987;SDS011;37428;53.580;-1.666;2023-04-01T12:02:50;1.48;;;0.95;;
33987;SDS011;37428;53.580;-1.666;2023-04-01T12:06:08;2.53;;;1.40;;
33987;SDS011;37428;53.580;-1.666;2023-04-01T12:09:17;2.55;;;1.33;;
33987;SDS011;37428;53.580;-1.666;2023-04-01T12:12:29;1.88;;;1.30;;
33987;SDS011;37428;53.580;-1.666;2023-04-01T12:15:43;3.42;;;2.33;;
33987;SDS011;37428;53.580;-1.666;2023-04-01T12:18:59;10.18;;;3.13;;
33987;SDS011;37428;53.580;-1.666;2023-04-01T12:22:12;4.18;;;1.65;;
33987;SDS011;37428;53.580;-1.666;2023-04-01T12:25:37;1.95;;;1.33;;
33987;SDS011;37428;53.580;-1.666;2023-04-01T12:29:02;1.40;;;1.13;;
33987;SDS011;37428;53.580;-1.666;2023-04-01T12:32:16;2.17;;;0.80;;
33987;SDS011;37428;53.580;-1.666;2023-04-01T12:35:27;3.30;;;1.58;;
33987;SDS011;37428;53.580;-1.666;2023-04-01T12:38:41;2.22;;;0.88;;
33987;SDS011;37428;53.580;-1.666;2023-04-01T12:41:51;1.42;;;0.75;;
33987;SDS011;37428;53.580;-1.666;2023-04-01T12:45:02;4.60;;;0.90;;
33987;SDS011;37428;53.580;-1.666;2023-04-01T12:48:23;4.07;;;1.00;;
33987;SDS011;37428;53.580;-1.666;2023-04-01T12:51:52;3.65;;;1.23;;
33987;SDS011;37428;53.580;-1.666;2023-04-01T12:55:13;2.83;;;1.48;;
33987;SDS011;37428;53.580;-1.666;2023-04-01T12:58:41;1.40;;;1.10;;
33987;SDS011;37428;53.580;-1.666;2023-04-01T13:02:08;4.32;;;1.25;;
33987;SDS011;37428;53.580;-1.666;2023-04-01T13:08:50;1.90;;;1.52;;
33987;SDS011;37428;53.580;-1.666;2023-04-01T13:12:04;1.52;;;0.88;;
33987;SDS011;37428;53.580;-1.666;2023-04-01T13:15:28;4.32;;;1.00;;
33987;SDS011;37428;53.580;-1.666;2023-04-01T13:18:39;2.30;;;0.98;;
33987;SDS011;37428;53.580;-1.666;2023-04-01T13:21:51;0.85;;;0.73;;
33987;SDS011;37428;53.580;-1.666;2023-04-01T13:25:02;1.23;;;1.00;;
33987;SDS011;37428;53.580;-1.666;2023-04-01T13:28:10;4.35;;;1.48;;
33987;SDS011;37428;53.580;-1.666;2023-04-01T13:31:25;1.20;;;0.75;;
33987;SDS011;37428;53.580;-1.666;2023-04-01T13:34:39;3.70;;;0.90;;
33987;SDS011;37428;53.580;-1.666;2023-04-01T13:37:57;2.33;;;0.85;;
33987;SDS011;37428;53.580;-1.666;2023-04-01T13:41:22;2.13;;;1.05;;
33987;SDS011;37428;53.580;-1.666;2023-04-01T13:44:39;1.67;;;0.95;;
33987;SDS011;37428;53.580;-1.666;2023-04-01T13:47:49;0.88;;;0.80;;
33987;SDS011;37428;53.580;-1.666;2023-04-01T13:54:42;3.22;;;1.08;;
33987;SDS011;37428;53.580;-1.666;2023-04-01T13:58:22;3.60;;;1.10;;
33987;SDS011;37428;53.580;-1.666;2023-04-01T14:01:36;3.13;;;1.65;;
33987;SDS011;37428;53.580;-1.666;2023-04-01T14:04:47;3.10;;;1.27;;
33987;SDS011;37428;53.580;-1.666;2023-04-01T14:08:02;1.50;;;1.17;;
33987;SDS011;37428;53.580;-1.666;2023-04-01T14:11:13;1.35;;;1.15;;
33987;SDS011;37428;53.580;-1.666;2023-04-01T14:14:24;5.50;;;1.50;;
33987;SDS011;37428;53.580;-1.666;2023-04-01T14:17:40;4.10;;;1.40;;
33987;SDS011;37428;53.580;-1.666;2023-04-01T14:20:53;2.25;;;1.42;;
33987;SDS011;37428;53.580;-1.666;2023-04-01T14:24:08;4.65;;;1.80;;
33987;SDS011;37428;53.580;-1.666;2023-04-01T14:27:25;3.60;;;1.50;;
33987;SDS011;37428;53.580;-1.666;2023-04-01T14:30:47;1.65;;;1.45;;
33987;SDS011;37428;53.580;-1.666;2023-04-01T14:34:00;4.75;;;1.65;;
33987;SDS011;37428;53.580;-1.666;2023-04-01T14:37:15;3.93;;;1.87;;
33987;SDS011;37428;53.580;-1.666;2023-04-01T14:40:27;2.72;;;1.27;;
33987;SDS011;37428;53.580;-1.666;2023-04-01T14:43:49;3.60;;;1.50;;
33987;SDS011;37428;53.580;-1.666;2023-04-01T14:47:15;4.10;;;1.70;;
33987;SDS011;37428;53.580;-1.666;2023-04-01T14:50:44;2.33;;;2.13;;
33987;SDS011;37428;53.580;-1.666;2023-04-01T14:53:52;2.97;;;1.80;;
33987;SDS011;37428;53.580;-1.666;2023-04-01T14:57:04;2.85;;;1.92;;
33987;SDS011;37428;53.580;-1.666;2023-04-01T15:00:13;4.10;;;1.80;;
33987;SDS011;37428;53.580;-1.666;2023-04-01T15:03:19;3.97;;;2.47;;
33987;SDS011;37428;53.580;-1.666;2023-04-01T15:06:35;6.03;;;2.70;;
33987;SDS011;37428;53.580;-1.666;2023-04-01T15:09:58;5.63;;;2.67;;
33987;SDS011;37428;53.580;-1.666;2023-04-01T15:13:10;4.25;;;2.90;;
33987;SDS011;37428;53.580;-1.666;2023-04-01T15:16:18;6.22;;;3.10;;
33987;SDS011;37428;53.580;-1.666;2023-04-01T15:19:29;9.52;;;3.30;;
33987;SDS011;37428;53.580;-1.666;2023-04-01T15:22:43;7.60;;;3.50;;
33987;SDS011;37428;53.580;-1.666;2023-04-01T15:26:02;6.07;;;2.90;;
33987;SDS011;37428;53.580;-1.666;2023-04-01T15:29:25;6.57;;;3.20;;
33987;SDS011;37428;53.580;-1.666;2023-04-01T15:32:42;11.70;;;2.95;;
33987;SDS011;37428;53.580;-1.666;2023-04-01T15:35:55;9.40;;;3.38;;
33987;SDS011;37428;53.580;-1.666;2023-04-01T15:39:09;11.20;;;3.15;;
33987;SDS011;37428;53.580;-1.666;2023-04-01T15:42:18;8.65;;;4.30;;
33987;SDS011;37428;53.580;-1.666;2023-04-01T15:45:35;12.90;;;3.72;;
33987;SDS011;37428;53.580;-1.666;2023-04-01T15:48:49;17.65;;;9.73;;
33987;SDS011;37428;53.580;-1.666;2023-04-01T15:52:02;32.60;;;17.10;;
33987;SDS011;37428;53.580;-1.666;2023-04-01T15:55:17;35.22;;;18.20;;
33987;SDS011;37428;53.580;-1.666;2023-04-01T15:58:30;33.17;;;18.02;;
33987;SDS011;37428;53.580;-1.666;2023-04-01T16:01:43;53.40;;;29.83;;
33987;SDS011;37428;53.580;-1.666;2023-04-01T16:04:54;10.13;;;6.90;;
33987;SDS011;37428;53.580;-1.666;2023-04-01T16:08:11;16.20;;;6.82;;
33987;SDS011;37428;53.580;-1.666;2023-04-01T16:11:23;13.25;;;5.03;;
33987;SDS011;37428;53.580;-1.666;2023-04-01T16:14:33;9.38;;;4.65;;
33987;SDS011;37428;53.580;-1.666;2023-04-01T16:17:59;10.93;;;3.00;;
33987;SDS011;37428;53.580;-1.666;2023-04-01T16:21:12;4.57;;;2.50;;
33987;SDS011;37428;53.580;-1.666;2023-04-01T16:24:32;8.68;;;3.50;;
33987;SDS011;37428;53.580;-1.666;2023-04-01T16:27:39;8.50;;;3.63;;
33987;SDS011;37428;53.580;-1.666;2023-04-01T16:30:47;8.18;;;3.10;;
33987;SDS011;37428;53.580;-1.666;2023-04-01T16:33:57;7.78;;;2.92;;
33987;SDS011;37428;53.580;-1.666;2023-04-01T16:37:05;8.52;;;3.53;;
33987;SDS011;37428;53.580;-1.666;2023-04-01T16:40:16;8.48;;;4.97;;
33987;SDS011;37428;53.580;-1.666;2023-04-01T16:43:28;10.63;;;3.78;;
33987;SDS011;37428;53.580;-1.666;2023-04-01T16:46:37;6.07;;;2.45;;
33987;SDS011;37428;53.580;-1.666;2023-04-01T16:49:42;5.95;;;3.08;;
33987;SDS011;37428;53.580;-1.666;2023-04-01T16:52:56;7.95;;;3.53;;
33987;SDS011;37428;53.580;-1.666;2023-04-01T16:56:07;5.90;;;2.60;;
33987;SDS011;37428;53.580;-1.666;2023-04-01T16:59:15;7.28;;;3.25;;
33987;SDS011;37428;53.580;-1.666;2023-04-01T17:02:23;9.82;;;3.33;;
33987;SDS011;37428;53.580;-1.666;2023-04-01T17:05:36;5.60;;;2.22;;
33987;SDS011;37428;53.580;-1.666;2023-04-01T17:09:00;8.65;;;2.70;;
33987;SDS011;37428;53.580;-1.666;2023-04-01T17:12:13;5.45;;;3.08;;
33987;SDS011;37428;53.580;-1.666;2023-04-01T17:15:25;6.28;;;3.00;;
33987;SDS011;37428;53.580;-1.666;2023-04-01T17:18:35;5.90;;;2.90;;
33987;SDS011;37428;53.580;-1.666;2023-04-01T17:21:49;5.68;;;2.45;;
33987;SDS011;37428;53.580;-1.666;2023-04-01T17:25:14;6.70;;;2.75;;
33987;SDS011;37428;53.580;-1.666;2023-04-01T17:28:31;6.85;;;2.50;;
33987;SDS011;37428;53.580;-1.666;2023-04-01T17:31:45;7.63;;;2.42;;
33987;SDS011;37428;53.580;-1.666;2023-04-01T17:34:54;4.50;;;2.63;;
33987;SDS011;37428;53.580;-1.666;2023-04-01T17:38:07;4.88;;;2.25;;
33987;SDS011;37428;53.580;-1.666;2023-04-01T17:41:21;4.40;;;2.00;;
33987;SDS011;37428;53.580;-1.666;2023-04-01T17:44:37;3.63;;;2.38;;
33987;SDS011;37428;53.580;-1.666;2023-04-01T17:47:49;8.20;;;2.85;;
33987;SDS011;37428;53.580;-1.666;2023-04-01T17:51:04;4.93;;;2.90;;
33987;SDS011;37428;53.580;-1.666;2023-04-01T17:54:20;10.10;;;2.70;;
33987;SDS011;37428;53.580;-1.666;2023-04-01T17:57:30;4.70;;;3.20;;
33987;SDS011;37428;53.580;-1.666;2023-04-01T18:00:50;3.80;;;2.60;;
33987;SDS011;37428;53.580;-1.666;2023-04-01T18:04:08;9.23;;;4.60;;
33987;SDS011;37428;53.580;-1.666;2023-04-01T18:07:34;4.25;;;3.58;;
33987;SDS011;37428;53.580;-1.666;2023-04-01T18:10:51;9.13;;;5.32;;
33987;SDS011;37428;53.580;-1.666;2023-04-01T18:14:13;8.25;;;6.68;;
33987;SDS011;37428;53.580;-1.666;2023-04-01T18:17:42;4.88;;;3.83;;
33987;SDS011;37428;53.580;-1.666;2023-04-01T18:20:54;8.23;;;6.13;;
33987;SDS011;37428;53.580;-1.666;2023-04-01T18:24:02;9.85;;;8.25;;
33987;SDS011;37428;53.580;-1.666;2023-04-01T18:27:15;11.13;;;8.13;;
33987;SDS011;37428;53.580;-1.666;2023-04-01T18:30:20;9.20;;;5.82;;
33987;SDS011;37428;53.580;-1.666;2023-04-01T18:33:31;4.60;;;3.28;;
33987;SDS011;37428;53.580;-1.666;2023-04-01T18:36:44;7.20;;;4.13;;
33987;SDS011;37428;53.580;-1.666;2023-04-01T18:39:50;5.78;;;4.20;;
33987;SDS011;37428;53.580;-1.666;2023-04-01T18:42:57;3.65;;;3.33;;
33987;SDS011;37428;53.580;-1.666;2023-04-01T18:46:07;4.85;;;4.00;;
33987;SDS011;37428;53.580;-1.666;2023-04-01T18:49:23;5.47;;;2.90;;
33987;SDS011;37428;53.580;-1.666;2023-04-01T18:52:31;3.53;;;2.63;;
33987;SDS011;37428;53.580;-1.666;2023-04-01T18:55:38;3.20;;;2.40;;
33987;SDS011;37428;53.580;-1.666;2023-04-01T18:58:45;4.35;;;2.40;;
33987;SDS011;37428;53.580;-1.666;2023-04-01T19:01:52;3.75;;;2.38;;
33987;SDS011;37428;53.580;-1.666;2023-04-01T19:05:05;2.78;;;2.55;;
33987;SDS011;37428;53.580;-1.666;2023-04-01T19:08:17;6.97;;;2.20;;
33987;SDS011;37428;53.580;-1.666;2023-04-01T19:11:23;3.90;;;3.50;;
33987;SDS011;37428;53.580;-1.666;2023-04-01T19:14:35;6.43;;;5.85;;
33987;SDS011;37428;53.580;-1.666;2023-04-01T19:17:58;10.25;;;8.57;;
33987;SDS011;37428;53.580;-1.666;2023-04-01T19:24:24;4.85;;;4.30;;
33987;SDS011;37428;53.580;-1.666;2023-04-01T19:27:45;8.48;;;4.53;;
33987;SDS011;37428;53.580;-1.666;2023-04-01T19:30:53;4.60;;;3.10;;
33987;SDS011;37428;53.580;-1.666;2023-04-01T19:33:59;4.88;;;3.90;;
33987;SDS011;37428;53.580;-1.666;2023-04-01T19:37:11;4.93;;;4.40;;
33987;SDS011;37428;53.580;-1.666;2023-04-01T19:40:34;39.45;;;20.88;;
33987;SDS011;37428;53.580;-1.666;2023-04-01T19:43:47;42.70;;;26.83;;
33987;SDS011;37428;53.580;-1.666;2023-04-01T19:46:55;13.55;;;10.32;;
33987;SDS011;37428;53.580;-1.666;2023-04-01T19:50:05;9.77;;;6.90;;
33987;SDS011;37428;53.580;-1.666;2023-04-01T19:53:21;5.68;;;3.88;;
33987;SDS011;37428;53.580;-1.666;2023-04-01T19:56:31;11.98;;;6.57;;
33987;SDS011;37428;53.580;-1.666;2023-04-01T19:59:41;6.18;;;5.03;;
33987;SDS011;37428;53.580;-1.666;2023-04-01T20:02:53;8.40;;;6.22;;
33987;SDS011;37428;53.580;-1.666;2023-04-01T20:06:04;8.75;;;4.30;;
33987;SDS011;37428;53.580;-1.666;2023-04-01T20:09:32;7.25;;;4.47;;
33987;SDS011;37428;53.580;-1.666;2023-04-01T20:12:47;10.18;;;4.82;;
33987;SDS011;37428;53.580;-1.666;2023-04-01T20:15:58;8.40;;;4.07;;
33987;SDS011;37428;53.580;-1.666;2023-04-01T20:19:03;9.02;;;4.50;;
33987;SDS011;37428;53.580;-1.666;2023-04-01T20:22:09;9.13;;;4.53;;